Terminal Aerodrome Forecast
Issued by NWS

Home | Current Version | Previous Version | Text Only | Print | Product List | Glossary On
Versions: 1 2 3 4 5 6 7 8 9 10 11 12 13 14 15 16 17
524
FTUS46 KMTR 171131
TAFSJC
TAF
KSJC 171131Z 1712/1812 16004KT P6SM SKC
     FM171800 16005KT P6SM SCT200
     FM172200 33007KT P6SM SCT200
     FM180300 VRB03KT P6SM BKN150
     FM180900 16005KT P6SM BKN100=

USA.gov is the U.S. government's official web portal to all federal, state and local government web resources and services.